createdAt,value
2023-05-12T00:01:17.533Z,9.75
2023-05-12T00:03:44.798Z,9.65
2023-05-12T00:06:12.619Z,9.64
2023-05-12T00:08:39.494Z,9.64
2023-05-12T00:11:06.348Z,9.68
2023-05-12T00:13:33.273Z,9.63
2023-05-12T00:16:00.280Z,9.59
2023-05-12T00:18:28.828Z,9.56
2023-05-12T00:20:56.996Z,9.51
2023-05-12T00:23:23.828Z,9.26
2023-05-12T00:25:50.732Z,9.22
2023-05-12T00:28:19.132Z,9.12
2023-05-12T00:30:46.013Z,9.07
2023-05-12T00:33:13.233Z,9.08
2023-05-12T00:35:40.228Z,9.09
2023-05-12T00:38:07.164Z,9.09
2023-05-12T00:40:34.252Z,9.14
2023-05-12T00:43:01.634Z,9.13
2023-05-12T00:45:29.933Z,9.08
2023-05-12T00:47:57.754Z,9.13
2023-05-12T00:50:25.137Z,9.06
2023-05-12T00:52:52.910Z,8.99
2023-05-12T00:55:19.943Z,8.89
2023-05-12T00:57:46.852Z,8.82
2023-05-12T01:00:14.264Z,8.91
2023-05-12T01:02:41.356Z,8.82
2023-05-12T01:05:10.194Z,8.76
2023-05-12T01:07:37.236Z,8.70
2023-05-12T01:10:04.655Z,8.74
2023-05-12T01:12:32.509Z,8.82
2023-05-12T01:14:59.588Z,8.80
2023-05-12T01:17:36.319Z,8.73
2023-05-12T01:20:06.620Z,8.71
2023-05-12T01:22:34.255Z,8.76
2023-05-12T01:25:07.931Z,8.73
2023-05-12T01:27:35.276Z,8.73
2023-05-12T01:30:04.618Z,8.70
2023-05-12T01:32:31.628Z,8.62
2023-05-12T01:34:58.645Z,8.64
2023-05-12T01:37:27.029Z,8.52
2023-05-12T01:39:54.471Z,8.42
2023-05-12T01:42:21.526Z,8.48
2023-05-12T01:44:48.400Z,8.39
2023-05-12T01:47:16.177Z,8.27
2023-05-12T01:49:43.367Z,8.04
2023-05-12T01:52:10.203Z,8.10
2023-05-12T01:54:37.261Z,8.10
2023-05-12T01:57:04.590Z,8.10
2023-05-12T01:59:31.582Z,8.05
2023-05-12T02:01:58.478Z,8.07
2023-05-12T02:04:25.405Z,7.99
2023-05-12T02:06:52.298Z,7.91
2023-05-12T02:09:19.443Z,7.87
2023-05-12T02:11:46.289Z,7.73
2023-05-12T02:14:13.144Z,7.71
2023-05-12T02:16:40.048Z,7.70
2023-05-12T02:19:06.988Z,7.64
2023-05-12T02:21:33.843Z,7.51
2023-05-12T02:24:00.684Z,7.52
2023-05-12T02:26:27.560Z,7.51
2023-05-12T02:28:54.683Z,7.46
2023-05-12T02:31:21.544Z,7.43
2023-05-12T02:33:48.686Z,7.30
2023-05-12T02:36:15.523Z,7.31
2023-05-12T02:38:42.381Z,7.30
2023-05-12T02:41:09.454Z,7.22
2023-05-12T02:43:36.530Z,7.24
2023-05-12T02:46:03.468Z,7.30
2023-05-12T02:48:30.358Z,7.28
2023-05-12T02:50:57.501Z,7.30
2023-05-12T02:53:24.322Z,7.38
2023-05-12T02:55:51.302Z,7.41
2023-05-12T02:58:18.140Z,7.46
2023-05-12T03:00:45.047Z,7.33
2023-05-12T03:03:12.657Z,7.24
2023-05-12T03:05:39.641Z,7.16
2023-05-12T03:08:06.496Z,7.22
2023-05-12T03:10:33.369Z,7.13
2023-05-12T03:13:00.188Z,7.28
2023-05-12T03:15:27.050Z,7.40
2023-05-12T03:17:53.975Z,7.42
2023-05-12T03:20:21.006Z,7.42
2023-05-12T03:22:48.058Z,7.50
2023-05-12T03:25:15.880Z,7.53
2023-05-12T03:27:43.567Z,7.42
2023-05-12T03:30:11.709Z,7.45
2023-05-12T03:32:39.641Z,7.47
2023-05-12T03:35:07.695Z,7.55
2023-05-12T03:37:34.650Z,7.45
2023-05-12T03:40:01.529Z,7.31
2023-05-12T03:42:28.766Z,7.28
2023-05-12T03:44:55.683Z,7.32
2023-05-12T03:47:22.669Z,7.24
2023-05-12T03:49:49.571Z,7.21
2023-05-12T03:52:16.463Z,7.31
2023-05-12T03:54:43.343Z,7.33
2023-05-12T03:57:10.176Z,7.38
2023-05-12T03:59:37.015Z,7.42
2023-05-12T04:02:04.543Z,7.40
2023-05-12T04:04:31.648Z,7.45
2023-05-12T04:06:59.965Z,7.45
2023-05-12T04:09:26.793Z,7.41
2023-05-12T04:11:53.621Z,7.36
2023-05-12T04:14:26.533Z,7.31
2023-05-12T04:16:58.983Z,7.34
2023-05-12T04:19:26.075Z,7.35
2023-05-12T04:21:52.923Z,7.44
2023-05-12T04:24:19.732Z,7.41
2023-05-12T04:26:46.567Z,7.45
2023-05-12T04:29:13.572Z,7.36
2023-05-12T04:31:40.534Z,7.36
2023-05-12T04:34:07.425Z,7.34
2023-05-12T04:36:34.383Z,7.42
2023-05-12T04:39:01.197Z,7.44
2023-05-12T04:41:28.101Z,7.41
2023-05-12T04:46:24.673Z,7.40
2023-05-12T04:48:51.535Z,7.44
2023-05-12T04:51:18.449Z,7.48
2023-05-12T04:53:45.271Z,7.42
2023-05-12T04:56:12.125Z,7.43
2023-05-12T04:58:38.932Z,7.51
2023-05-12T05:01:05.834Z,7.55
2023-05-12T05:03:32.833Z,7.60
2023-05-12T05:05:59.857Z,7.65
2023-05-12T05:08:26.666Z,7.65
2023-05-12T05:10:53.528Z,7.75
2023-05-12T05:13:20.490Z,7.71
2023-05-12T05:15:52.227Z,7.86
2023-05-12T05:18:21.065Z,7.74
2023-05-12T05:20:57.140Z,7.80
2023-05-12T05:23:26.182Z,7.83
2023-05-12T05:25:53.182Z,7.97
2023-05-12T05:28:20.011Z,7.90
2023-05-12T05:30:46.920Z,7.97
2023-05-12T05:33:13.832Z,8.02
2023-05-12T05:35:40.828Z,8.06
2023-05-12T05:38:07.668Z,8.14
2023-05-12T05:40:48.705Z,8.24
2023-05-12T05:43:16.043Z,8.30
2023-05-12T05:45:42.887Z,8.35
2023-05-12T05:48:09.806Z,8.28
2023-05-12T05:50:36.867Z,8.34
2023-05-12T05:53:03.714Z,8.40
2023-05-12T05:55:30.518Z,8.54
2023-05-12T05:57:57.361Z,8.68
2023-05-12T06:00:24.284Z,8.77
2023-05-12T06:02:51.522Z,8.70
2023-05-12T06:05:18.761Z,8.82
2023-05-12T06:07:45.758Z,8.83
2023-05-12T06:10:12.590Z,9.03
2023-05-12T06:12:41.063Z,9.06
2023-05-12T06:15:08.724Z,9.03
2023-05-12T06:17:35.751Z,9.15
2023-05-12T06:20:03.525Z,9.25
2023-05-12T06:22:30.347Z,9.19
2023-05-12T06:24:57.331Z,9.33
2023-05-12T06:27:24.161Z,9.47
2023-05-12T06:29:51.931Z,9.46
2023-05-12T06:32:19.325Z,9.54
2023-05-12T06:34:46.171Z,9.70
2023-05-12T06:37:13.201Z,9.68
2023-05-12T06:39:40.168Z,9.58
2023-05-12T06:42:07.039Z,9.79
2023-05-12T06:44:33.918Z,9.64
2023-05-12T06:47:00.746Z,9.89
2023-05-12T06:49:27.646Z,10.01
2023-05-12T06:51:54.806Z,10.10
2023-05-12T06:54:21.660Z,10.18
2023-05-12T06:56:48.773Z,10.25
2023-05-12T06:59:15.817Z,10.46
2023-05-12T07:01:43.343Z,10.37
2023-05-12T07:04:10.521Z,10.59
2023-05-12T07:06:37.578Z,10.52
2023-05-12T07:09:04.672Z,10.74
2023-05-12T07:11:31.621Z,10.83
2023-05-12T07:13:58.500Z,10.70
2023-05-12T07:16:25.553Z,10.98
2023-05-12T07:18:52.529Z,11.06
2023-05-12T07:21:19.542Z,11.08
2023-05-12T07:23:46.432Z,11.09
2023-05-12T07:26:13.376Z,11.27
2023-05-12T07:28:40.247Z,11.29
2023-05-12T07:31:08.737Z,11.37
2023-05-12T07:33:36.443Z,11.50
2023-05-12T07:36:04.914Z,11.46
2023-05-12T07:38:32.916Z,11.64
2023-05-12T07:41:00.779Z,11.78
2023-05-12T07:43:27.881Z,11.83
2023-05-12T07:45:56.284Z,11.88
2023-05-12T07:48:23.209Z,12.02
2023-05-12T07:50:50.061Z,12.16
2023-05-12T07:53:16.971Z,12.14
2023-05-12T07:55:44.327Z,12.38
2023-05-12T07:58:12.514Z,12.47
2023-05-12T08:00:40.621Z,12.64
2023-05-12T08:03:07.904Z,12.75
2023-05-12T08:05:34.908Z,12.77
2023-05-12T08:08:01.831Z,12.84
2023-05-12T08:10:30.108Z,12.77
2023-05-12T08:12:57.003Z,12.79
2023-05-12T08:15:23.977Z,13.04
2023-05-12T08:17:50.994Z,13.21
2023-05-12T08:20:17.959Z,13.32
2023-05-12T08:22:44.888Z,13.26
2023-05-12T08:25:12.770Z,12.95
2023-05-12T08:27:44.552Z,13.04
2023-05-12T08:30:12.201Z,13.25
2023-05-12T08:32:39.328Z,13.19
2023-05-12T08:35:06.788Z,13.14
2023-05-12T08:37:34.496Z,13.20
2023-05-12T08:40:02.031Z,13.39
2023-05-12T08:42:55.967Z,13.48
2023-05-12T08:45:24.059Z,13.58
2023-05-12T08:47:54.067Z,13.65
2023-05-12T08:50:23.624Z,13.67
2023-05-12T08:52:51.641Z,13.73
2023-05-12T08:55:19.953Z,13.70
2023-05-12T08:57:48.689Z,13.55
2023-05-12T09:00:17.004Z,13.70
2023-05-12T09:02:52.993Z,14.00
2023-05-12T09:05:22.999Z,13.84
2023-05-12T09:07:50.663Z,14.21
2023-05-12T09:10:33.568Z,14.30
2023-05-12T09:13:14.198Z,14.28
2023-05-12T09:15:46.193Z,14.32
2023-05-12T09:18:13.206Z,14.39
2023-05-12T09:20:40.147Z,14.27
2023-05-12T09:23:22.220Z,14.41
2023-05-12T09:26:03.204Z,14.29
2023-05-12T09:28:39.278Z,14.22
2023-05-12T09:31:27.352Z,14.36
2023-05-12T09:33:54.275Z,14.40
2023-05-12T09:36:24.353Z,14.57
2023-05-12T09:39:07.074Z,14.69
2023-05-12T09:41:42.353Z,14.83
2023-05-12T09:44:11.295Z,14.84
2023-05-12T09:46:40.051Z,14.77
2023-05-12T09:49:07.063Z,14.75
2023-05-12T09:51:34.145Z,14.86
2023-05-12T09:54:01.573Z,14.88
2023-05-12T09:56:30.085Z,14.77
2023-05-12T09:58:58.360Z,14.65
2023-05-12T10:01:26.671Z,14.30
2023-05-12T10:04:01.156Z,14.49
2023-05-12T10:06:43.284Z,14.45
2023-05-12T10:09:22.479Z,14.49
2023-05-12T10:11:53.721Z,14.42
2023-05-12T10:14:23.164Z,14.38
2023-05-12T10:16:51.555Z,14.28
2023-05-12T10:19:19.343Z,14.17
2023-05-12T10:21:47.244Z,14.02
2023-05-12T10:24:17.068Z,13.95
2023-05-12T10:26:45.051Z,13.95
2023-05-12T10:29:13.269Z,14.12
2023-05-12T10:31:40.747Z,14.01
2023-05-12T10:34:07.671Z,13.78
2023-05-12T10:36:49.917Z,13.85
2023-05-12T10:39:17.107Z,14.04
2023-05-12T10:41:44.188Z,14.07
2023-05-12T10:44:11.490Z,14.03
2023-05-12T10:46:38.771Z,14.11
2023-05-12T10:49:10.698Z,14.16
2023-05-12T10:51:37.979Z,14.04
2023-05-12T10:54:07.967Z,13.99
2023-05-12T10:56:38.668Z,14.02
2023-05-12T10:59:14.858Z,14.05
2023-05-12T11:01:44.683Z,14.08
2023-05-12T11:04:20.339Z,14.24
2023-05-12T11:07:01.288Z,14.11
2023-05-12T11:09:29.341Z,14.35
2023-05-12T11:11:56.903Z,14.31
2023-05-12T11:14:24.313Z,14.43
2023-05-12T11:16:51.224Z,14.55
2023-05-12T11:19:18.913Z,14.64
2023-05-12T11:21:45.869Z,14.66
2023-05-12T11:24:13.397Z,14.71
2023-05-12T11:26:41.673Z,14.91
2023-05-12T11:29:08.634Z,14.78
2023-05-12T11:31:35.501Z,14.82
2023-05-12T11:34:13.512Z,14.89
2023-05-12T11:36:44.566Z,14.85
2023-05-12T11:39:20.988Z,14.81
2023-05-12T11:41:51.341Z,14.87
2023-05-12T11:44:21.682Z,14.85
2023-05-12T11:47:13.105Z,14.76
2023-05-12T11:50:07.652Z,14.75
2023-05-12T11:52:34.648Z,14.71
2023-05-12T11:55:01.634Z,14.66
2023-05-12T11:57:33.621Z,14.61
2023-05-12T12:00:07.092Z,14.46
2023-05-12T12:02:36.066Z,14.42
2023-05-12T12:05:03.668Z,14.58
2023-05-12T12:07:36.672Z,14.70
2023-05-12T12:10:17.441Z,14.67
2023-05-12T12:12:45.958Z,14.85
2023-05-12T12:15:13.487Z,14.66
2023-05-12T12:17:40.715Z,14.98
2023-05-12T12:20:09.390Z,14.98
2023-05-12T12:22:36.651Z,14.93
2023-05-12T12:25:04.311Z,14.83
2023-05-12T12:27:31.258Z,14.68
2023-05-12T12:29:58.155Z,14.68
2023-05-12T12:32:25.202Z,14.67
2023-05-12T12:34:53.521Z,14.59
2023-05-12T12:37:20.415Z,14.53
2023-05-12T12:39:48.072Z,14.52
2023-05-12T12:42:15.814Z,14.52
2023-05-12T12:44:43.994Z,14.77
2023-05-12T12:47:10.924Z,14.71
2023-05-12T12:49:37.918Z,14.79
2023-05-12T12:52:05.195Z,14.85
2023-05-12T12:54:32.100Z,14.84
2023-05-12T12:56:59.020Z,14.73
2023-05-12T12:59:27.132Z,14.68
2023-05-12T13:01:54.146Z,14.77
2023-05-12T13:04:23.197Z,14.46
2023-05-12T13:06:50.161Z,14.55
2023-05-12T13:09:19.998Z,14.56
2023-05-12T13:11:47.980Z,14.69
2023-05-12T13:14:14.880Z,14.92
2023-05-12T13:16:42.268Z,15.05
2023-05-12T13:19:09.254Z,15.18
2023-05-12T13:21:36.327Z,15.13
2023-05-12T13:24:03.363Z,15.13
2023-05-12T13:26:30.197Z,15.29
2023-05-12T13:28:57.497Z,15.31
2023-05-12T13:31:24.473Z,15.35
2023-05-12T13:33:51.396Z,15.55
2023-05-12T13:36:19.633Z,15.63
2023-05-12T13:38:49.119Z,15.74
2023-05-12T13:41:16.053Z,16.04
2023-05-12T13:43:43.861Z,15.98
2023-05-12T13:46:10.863Z,16.01
2023-05-12T13:48:37.807Z,16.11
2023-05-12T13:51:04.984Z,15.92
2023-05-12T13:53:32.478Z,15.74
2023-05-12T13:55:59.412Z,15.31
2023-05-12T13:58:26.264Z,15.35
2023-05-12T14:00:53.414Z,15.28
2023-05-12T14:03:21.005Z,15.06
2023-05-12T14:05:47.949Z,15.15
2023-05-12T14:08:14.863Z,14.95
2023-05-12T14:10:41.751Z,15.21
2023-05-12T14:13:08.725Z,15.15
2023-05-12T14:15:47.961Z,15.19
2023-05-12T14:18:16.770Z,15.06
2023-05-12T14:20:43.696Z,15.38
2023-05-12T14:23:10.629Z,15.37
2023-05-12T14:25:37.554Z,15.67
2023-05-12T14:28:04.545Z,15.76
2023-05-12T14:30:31.486Z,15.86
2023-05-12T14:32:58.422Z,16.14
2023-05-12T14:35:27.909Z,16.41
2023-05-12T14:37:55.826Z,16.43
2023-05-12T14:40:23.633Z,16.34
2023-05-12T14:42:50.758Z,16.45
2023-05-12T14:45:17.934Z,16.47
2023-05-12T14:47:45.198Z,16.53
2023-05-12T14:50:12.381Z,16.58
2023-05-12T14:52:39.706Z,16.71
2023-05-12T14:55:12.024Z,16.98
2023-05-12T14:57:40.802Z,16.99
2023-05-12T15:00:11.051Z,17.25
2023-05-12T15:02:39.864Z,17.44
2023-05-12T15:05:08.955Z,17.67
2023-05-12T15:07:36.877Z,17.64
2023-05-12T15:10:05.218Z,17.87
2023-05-12T15:12:33.338Z,17.75
2023-05-12T15:15:02.399Z,17.84
2023-05-12T15:17:29.384Z,17.95
2023-05-12T15:19:56.728Z,17.77
2023-05-12T15:22:23.751Z,17.78
2023-05-12T15:24:50.751Z,17.79
2023-05-12T15:27:17.682Z,17.66
2023-05-12T15:29:44.630Z,17.72
2023-05-12T15:32:11.532Z,17.22
2023-05-12T15:34:39.379Z,16.97
2023-05-12T15:37:06.779Z,16.67
2023-05-12T15:39:33.791Z,16.34
2023-05-12T15:42:01.308Z,16.32
2023-05-12T15:44:28.241Z,16.40
2023-05-12T15:46:55.421Z,16.19
2023-05-12T15:49:22.666Z,16.38
2023-05-12T15:51:49.533Z,16.24
2023-05-12T15:54:16.773Z,16.46
2023-05-12T15:56:43.820Z,16.23
2023-05-12T15:59:12.376Z,16.43
2023-05-12T16:01:39.355Z,16.47
2023-05-12T16:04:07.066Z,16.31
2023-05-12T16:06:35.276Z,15.89
2023-05-12T16:09:02.432Z,15.73
2023-05-12T16:11:29.936Z,15.77
2023-05-12T16:13:57.483Z,15.64
2023-05-12T16:16:24.664Z,15.52
2023-05-12T16:18:51.595Z,15.55
2023-05-12T16:21:18.631Z,15.52
2023-05-12T16:23:45.517Z,15.25
2023-05-12T16:26:12.408Z,15.26
2023-05-12T16:28:39.296Z,15.15
2023-05-12T16:31:06.136Z,15.23
2023-05-12T16:33:33.097Z,15.13
2023-05-12T16:36:00.067Z,15.11
2023-05-12T16:38:27.062Z,15.07
2023-05-12T16:40:53.913Z,15.03
2023-05-12T16:43:20.825Z,15.05
2023-05-12T16:45:48.314Z,14.96
2023-05-12T16:48:15.321Z,14.94
2023-05-12T16:50:42.163Z,14.84
2023-05-12T16:53:09.016Z,14.79
2023-05-12T16:55:35.954Z,14.63
2023-05-12T16:58:02.839Z,14.64
2023-05-12T17:00:30.151Z,14.72
2023-05-12T17:02:57.164Z,14.76
2023-05-12T17:05:24.834Z,14.65
2023-05-12T17:07:51.799Z,14.56
2023-05-12T17:10:18.655Z,14.44
2023-05-12T17:12:45.488Z,14.51
2023-05-12T17:15:12.321Z,14.24
2023-05-12T17:17:39.552Z,14.21
2023-05-12T17:20:07.221Z,14.26
2023-05-12T17:22:37.387Z,14.22
2023-05-12T17:25:04.715Z,14.20
2023-05-12T17:27:31.711Z,14.35
2023-05-12T17:29:59.970Z,14.29
2023-05-12T17:32:27.225Z,14.30
2023-05-12T17:34:54.072Z,14.19
2023-05-12T17:37:20.943Z,14.21
2023-05-12T17:39:47.808Z,14.22
2023-05-12T17:42:14.701Z,14.06
2023-05-12T17:44:41.727Z,14.11
2023-05-12T17:47:08.786Z,14.08
2023-05-12T17:49:35.757Z,14.04
2023-05-12T17:52:02.588Z,13.96
2023-05-12T17:54:29.522Z,14.02
2023-05-12T17:56:56.380Z,13.91
2023-05-12T17:59:23.260Z,13.80
2023-05-12T18:01:50.121Z,13.78
2023-05-12T18:04:17.261Z,13.81
2023-05-12T18:06:44.114Z,13.82
2023-05-12T18:09:11.021Z,13.78
2023-05-12T18:11:37.881Z,13.75
2023-05-12T18:14:06.211Z,13.73
2023-05-12T18:16:33.538Z,13.79
2023-05-12T18:19:00.854Z,13.73
2023-05-12T18:21:27.802Z,13.48
2023-05-12T18:23:54.670Z,13.59
2023-05-12T18:26:22.185Z,13.53
2023-05-12T18:28:49.044Z,13.52
2023-05-12T18:31:19.611Z,13.58
2023-05-12T18:33:48.141Z,13.51
2023-05-12T18:36:16.279Z,13.25
2023-05-12T18:38:43.714Z,13.22
2023-05-12T18:41:11.665Z,12.92
2023-05-12T18:43:38.760Z,13.03
2023-05-12T18:46:06.257Z,12.86
2023-05-12T18:48:33.311Z,12.91
2023-05-12T18:51:01.487Z,12.99
2023-05-12T18:53:28.446Z,12.91
2023-05-12T18:55:55.390Z,13.09
2023-05-12T18:58:22.328Z,13.06
2023-05-12T19:00:49.177Z,12.92
2023-05-12T19:03:16.478Z,12.85
2023-05-12T19:05:44.779Z,12.85
2023-05-12T19:08:12.764Z,12.82
2023-05-12T19:10:40.242Z,12.81
2023-05-12T19:13:07.440Z,12.76
2023-05-12T19:15:34.503Z,12.75
2023-05-12T19:18:01.326Z,12.77
2023-05-12T19:20:29.203Z,12.75
2023-05-12T19:22:56.098Z,12.84
2023-05-12T19:25:23.431Z,12.79
2023-05-12T19:27:51.071Z,12.75
2023-05-12T19:30:18.073Z,12.66
2023-05-12T19:32:46.326Z,12.68
2023-05-12T19:35:16.919Z,12.68
2023-05-12T19:37:44.144Z,12.67
2023-05-12T19:40:11.531Z,12.61
2023-05-12T19:42:38.378Z,12.68
2023-05-12T19:45:06.216Z,12.62
2023-05-12T19:47:33.638Z,12.52
2023-05-12T19:50:01.033Z,12.55
2023-05-12T19:52:30.831Z,12.54
2023-05-12T19:54:57.857Z,12.52
2023-05-12T19:57:24.675Z,12.51
2023-05-12T19:59:51.559Z,12.41
2023-05-12T20:02:18.584Z,12.53
2023-05-12T20:04:45.555Z,12.53
2023-05-12T20:07:12.441Z,12.46
2023-05-12T20:09:39.281Z,12.31
2023-05-12T20:12:08.163Z,12.25
2023-05-12T20:14:38.627Z,12.35
2023-05-12T20:17:07.569Z,12.39
2023-05-12T20:19:34.757Z,12.30
2023-05-12T20:22:01.975Z,12.27
2023-05-12T20:24:28.924Z,12.26
2023-05-12T20:26:56.158Z,12.34
2023-05-12T20:29:23.224Z,12.25
2023-05-12T20:31:51.513Z,12.31
2023-05-12T20:34:19.423Z,12.37
2023-05-12T20:36:47.139Z,12.30
2023-05-12T20:39:14.351Z,12.30
2023-05-12T20:41:43.620Z,12.31
2023-05-12T20:44:11.078Z,12.28
2023-05-12T20:46:38.912Z,12.33
2023-05-12T20:49:06.505Z,12.40
2023-05-12T20:51:33.569Z,12.31
2023-05-12T20:54:00.583Z,12.35
2023-05-12T20:56:27.471Z,12.35
2023-05-12T20:58:54.407Z,12.26
2023-05-12T21:01:21.441Z,12.40
2023-05-12T21:03:48.738Z,12.35
2023-05-12T21:06:16.034Z,12.36
2023-05-12T21:08:42.854Z,12.33
2023-05-12T21:11:19.307Z,12.36
2023-05-12T21:13:47.288Z,12.30
2023-05-12T21:16:15.527Z,12.38
2023-05-12T21:18:42.611Z,12.40
2023-05-12T21:21:09.509Z,12.29
2023-05-12T21:23:37.677Z,12.20
2023-05-12T21:26:05.394Z,12.22
2023-05-12T21:28:32.313Z,12.21
2023-05-12T21:30:59.253Z,12.28
2023-05-12T21:33:26.129Z,12.16
2023-05-12T21:35:52.963Z,12.19
2023-05-12T21:38:21.034Z,12.04
2023-05-12T21:40:56.506Z,12.18
2023-05-12T21:43:23.397Z,12.09
2023-05-12T21:45:50.258Z,12.11
2023-05-12T21:48:17.780Z,12.13
2023-05-12T21:50:44.617Z,12.07
2023-05-12T21:53:11.856Z,12.02
2023-05-12T21:55:40.881Z,12.06
2023-05-12T21:58:07.704Z,12.03
2023-05-12T22:00:34.571Z,12.03
2023-05-12T22:03:01.514Z,11.94
2023-05-12T22:05:28.415Z,11.96
2023-05-12T22:07:55.861Z,11.98
2023-05-12T22:10:22.890Z,12.04
2023-05-12T22:12:49.837Z,12.01
2023-05-12T22:15:18.077Z,12.04
2023-05-12T22:17:48.893Z,12.06
2023-05-12T22:20:17.460Z,12.00
2023-05-12T22:22:44.520Z,12.03
2023-05-12T22:25:11.583Z,11.97
2023-05-12T22:27:38.529Z,12.01
2023-05-12T22:30:06.262Z,12.04
2023-05-12T22:32:33.363Z,12.09
2023-05-12T22:35:00.354Z,12.08
2023-05-12T22:37:27.514Z,12.12
2023-05-12T22:39:54.910Z,11.95
2023-05-12T22:42:21.784Z,11.97
2023-05-12T22:44:48.598Z,11.98
2023-05-12T22:47:15.624Z,12.00
2023-05-12T22:49:42.515Z,11.93
2023-05-12T22:52:09.476Z,11.93
2023-05-12T22:54:36.292Z,12.03
2023-05-12T22:57:03.116Z,12.03
2023-05-12T22:59:29.939Z,11.98
2023-05-12T23:01:56.764Z,11.97
2023-05-12T23:04:23.611Z,11.99
2023-05-12T23:06:50.642Z,12.02
2023-05-12T23:09:17.498Z,12.07
2023-05-12T23:11:44.342Z,12.03
2023-05-12T23:14:11.671Z,12.06
2023-05-12T23:16:38.707Z,12.07
2023-05-12T23:19:05.695Z,12.07
2023-05-12T23:21:33.149Z,11.93
2023-05-12T23:24:00.284Z,11.95
2023-05-12T23:26:27.166Z,11.96
2023-05-12T23:28:54.355Z,11.93
2023-05-12T23:31:21.212Z,11.97
2023-05-12T23:33:48.093Z,11.97
2023-05-12T23:36:14.996Z,11.90
2023-05-12T23:38:41.858Z,11.88
2023-05-12T23:41:08.780Z,11.89
2023-05-12T23:43:35.642Z,11.96
2023-05-12T23:46:02.777Z,11.90
2023-05-12T23:48:30.415Z,11.86
2023-05-12T23:50:57.358Z,11.91
2023-05-12T23:53:24.203Z,11.92
2023-05-12T23:55:51.106Z,11.97
2023-05-12T23:58:17.928Z,11.91
